sensor_id;sensor_type;location;lat;lon;timestamp;P1;durP1;ratioP1;P2;durP2;ratioP2
1178;SDS011;578;48.408;10.004;2022-10-26T00:00:42;6.23;;;5.30;;
1178;SDS011;578;48.408;10.004;2022-10-26T00:03:09;9.00;;;5.07;;
1178;SDS011;578;48.408;10.004;2022-10-26T00:05:37;10.10;;;4.70;;
1178;SDS011;578;48.408;10.004;2022-10-26T00:08:04;6.33;;;5.20;;
1178;SDS011;578;48.408;10.004;2022-10-26T00:10:33;6.30;;;5.30;;
1178;SDS011;578;48.408;10.004;2022-10-26T00:13:00;10.70;;;4.47;;
1178;SDS011;578;48.408;10.004;2022-10-26T00:15:27;9.80;;;5.60;;
1178;SDS011;578;48.408;10.004;2022-10-26T00:17:53;6.27;;;4.83;;
1178;SDS011;578;48.408;10.004;2022-10-26T00:20:20;7.60;;;4.83;;
1178;SDS011;578;48.408;10.004;2022-10-26T00:22:48;6.30;;;5.03;;
1178;SDS011;578;48.408;10.004;2022-10-26T00:25:15;11.00;;;5.70;;
1178;SDS011;578;48.408;10.004;2022-10-26T00:27:42;9.93;;;5.00;;
1178;SDS011;578;48.408;10.004;2022-10-26T00:30:09;6.50;;;5.07;;
1178;SDS011;578;48.408;10.004;2022-10-26T00:32:35;13.40;;;5.77;;
1178;SDS011;578;48.408;10.004;2022-10-26T00:35:02;8.70;;;5.10;;
1178;SDS011;578;48.408;10.004;2022-10-26T00:37:29;9.83;;;5.90;;
1178;SDS011;578;48.408;10.004;2022-10-26T00:39:57;7.03;;;5.00;;
1178;SDS011;578;48.408;10.004;2022-10-26T00:42:24;7.20;;;4.47;;
1178;SDS011;578;48.408;10.004;2022-10-26T00:44:55;17.47;;;6.70;;
1178;SDS011;578;48.408;10.004;2022-10-26T00:47:28;11.53;;;5.20;;
1178;SDS011;578;48.408;10.004;2022-10-26T00:50:02;10.30;;;4.50;;
1178;SDS011;578;48.408;10.004;2022-10-26T00:52:32;5.57;;;4.93;;
1178;SDS011;578;48.408;10.004;2022-10-26T00:55:00;9.00;;;5.50;;
1178;SDS011;578;48.408;10.004;2022-10-26T00:57:27;8.47;;;4.70;;
1178;SDS011;578;48.408;10.004;2022-10-26T00:59:54;6.97;;;5.03;;
1178;SDS011;578;48.408;10.004;2022-10-26T01:02:23;9.53;;;5.53;;
1178;SDS011;578;48.408;10.004;2022-10-26T01:04:50;7.23;;;4.70;;
1178;SDS011;578;48.408;10.004;2022-10-26T01:07:17;8.00;;;5.23;;
1178;SDS011;578;48.408;10.004;2022-10-26T01:09:44;7.60;;;5.60;;
1178;SDS011;578;48.408;10.004;2022-10-26T01:12:13;5.80;;;5.07;;
1178;SDS011;578;48.408;10.004;2022-10-26T01:14:39;6.90;;;4.77;;
1178;SDS011;578;48.408;10.004;2022-10-26T01:17:08;10.90;;;5.60;;
1178;SDS011;578;48.408;10.004;2022-10-26T01:23:04;8.43;;;4.87;;
1178;SDS011;578;48.408;10.004;2022-10-26T01:25:51;7.80;;;4.93;;
1178;SDS011;578;48.408;10.004;2022-10-26T01:28:38;9.00;;;5.40;;
1178;SDS011;578;48.408;10.004;2022-10-26T01:31:22;10.43;;;4.53;;
1178;SDS011;578;48.408;10.004;2022-10-26T01:33:54;5.63;;;4.23;;
1178;SDS011;578;48.408;10.004;2022-10-26T01:36:26;8.83;;;4.70;;
1178;SDS011;578;48.408;10.004;2022-10-26T01:38:59;6.00;;;4.90;;
1178;SDS011;578;48.408;10.004;2022-10-26T01:41:33;7.03;;;4.60;;
1178;SDS011;578;48.408;10.004;2022-10-26T01:44:03;5.27;;;4.00;;
1178;SDS011;578;48.408;10.004;2022-10-26T01:46:36;6.43;;;4.80;;
1178;SDS011;578;48.408;10.004;2022-10-26T01:49:06;9.87;;;4.87;;
1178;SDS011;578;48.408;10.004;2022-10-26T01:51:35;8.23;;;4.97;;
1178;SDS011;578;48.408;10.004;2022-10-26T01:54:04;10.10;;;5.07;;
1178;SDS011;578;48.408;10.004;2022-10-26T01:56:32;5.67;;;4.70;;
1178;SDS011;578;48.408;10.004;2022-10-26T01:59:03;8.53;;;5.17;;
1178;SDS011;578;48.408;10.004;2022-10-26T02:01:52;9.03;;;5.63;;
1178;SDS011;578;48.408;10.004;2022-10-26T02:04:34;5.10;;;4.60;;
1178;SDS011;578;48.408;10.004;2022-10-26T02:07:12;8.33;;;4.77;;
1178;SDS011;578;48.408;10.004;2022-10-26T02:09:50;8.20;;;5.80;;
1178;SDS011;578;48.408;10.004;2022-10-26T02:12:28;11.50;;;6.50;;
1178;SDS011;578;48.408;10.004;2022-10-26T02:15:03;8.97;;;6.40;;
1178;SDS011;578;48.408;10.004;2022-10-26T02:17:36;6.00;;;5.50;;
1178;SDS011;578;48.408;10.004;2022-10-26T02:20:12;7.90;;;5.97;;
1178;SDS011;578;48.408;10.004;2022-10-26T02:22:46;8.40;;;6.23;;
1178;SDS011;578;48.408;10.004;2022-10-26T02:25:15;10.40;;;7.77;;
1178;SDS011;578;48.408;10.004;2022-10-26T02:27:46;9.57;;;7.90;;
1178;SDS011;578;48.408;10.004;2022-10-26T02:30:16;14.50;;;8.53;;
1178;SDS011;578;48.408;10.004;2022-10-26T02:32:46;8.20;;;7.40;;
1178;SDS011;578;48.408;10.004;2022-10-26T02:35:16;7.70;;;6.97;;
1178;SDS011;578;48.408;10.004;2022-10-26T02:37:47;8.03;;;7.20;;
1178;SDS011;578;48.408;10.004;2022-10-26T02:40:18;9.03;;;8.13;;
1178;SDS011;578;48.408;10.004;2022-10-26T02:42:47;8.77;;;7.50;;
1178;SDS011;578;48.408;10.004;2022-10-26T02:45:18;9.17;;;7.73;;
1178;SDS011;578;48.408;10.004;2022-10-26T02:47:50;7.93;;;7.10;;
1178;SDS011;578;48.408;10.004;2022-10-26T02:50:18;8.77;;;7.87;;
1178;SDS011;578;48.408;10.004;2022-10-26T02:52:50;9.60;;;7.17;;
1178;SDS011;578;48.408;10.004;2022-10-26T02:55:26;10.80;;;7.57;;
1178;SDS011;578;48.408;10.004;2022-10-26T02:57:57;10.00;;;8.03;;
1178;SDS011;578;48.408;10.004;2022-10-26T03:00:28;7.37;;;6.63;;
1178;SDS011;578;48.408;10.004;2022-10-26T03:02:57;10.13;;;8.37;;
1178;SDS011;578;48.408;10.004;2022-10-26T03:05:27;8.03;;;7.23;;
1178;SDS011;578;48.408;10.004;2022-10-26T03:07:56;12.93;;;8.40;;
1178;SDS011;578;48.408;10.004;2022-10-26T03:10:24;10.03;;;7.03;;
1178;SDS011;578;48.408;10.004;2022-10-26T03:12:50;10.00;;;7.80;;
1178;SDS011;578;48.408;10.004;2022-10-26T03:15:17;9.73;;;8.03;;
1178;SDS011;578;48.408;10.004;2022-10-26T03:17:44;8.33;;;7.53;;
1178;SDS011;578;48.408;10.004;2022-10-26T03:20:12;9.27;;;7.73;;
1178;SDS011;578;48.408;10.004;2022-10-26T03:22:39;8.13;;;7.07;;
1178;SDS011;578;48.408;10.004;2022-10-26T03:25:06;9.27;;;7.33;;
1178;SDS011;578;48.408;10.004;2022-10-26T03:27:33;10.87;;;6.97;;
1178;SDS011;578;48.408;10.004;2022-10-26T03:30:00;9.07;;;5.77;;
1178;SDS011;578;48.408;10.004;2022-10-26T03:32:27;10.10;;;6.63;;
1178;SDS011;578;48.408;10.004;2022-10-26T03:34:53;12.13;;;6.83;;
1178;SDS011;578;48.408;10.004;2022-10-26T03:37:21;8.57;;;6.50;;
1178;SDS011;578;48.408;10.004;2022-10-26T03:39:48;8.00;;;6.03;;
1178;SDS011;578;48.408;10.004;2022-10-26T03:42:15;6.30;;;5.47;;
1178;SDS011;578;48.408;10.004;2022-10-26T03:44:42;8.10;;;6.23;;
1178;SDS011;578;48.408;10.004;2022-10-26T03:47:08;8.07;;;6.60;;
1178;SDS011;578;48.408;10.004;2022-10-26T03:49:35;9.17;;;7.57;;
1178;SDS011;578;48.408;10.004;2022-10-26T03:52:02;9.67;;;7.30;;
1178;SDS011;578;48.408;10.004;2022-10-26T03:54:30;9.33;;;6.80;;
1178;SDS011;578;48.408;10.004;2022-10-26T03:56:57;32.13;;;7.67;;
1178;SDS011;578;48.408;10.004;2022-10-26T03:59:24;8.90;;;6.60;;
1178;SDS011;578;48.408;10.004;2022-10-26T04:01:50;7.33;;;6.63;;
1178;SDS011;578;48.408;10.004;2022-10-26T04:04:17;9.60;;;7.03;;
1178;SDS011;578;48.408;10.004;2022-10-26T04:06:44;10.20;;;7.33;;
1178;SDS011;578;48.408;10.004;2022-10-26T04:09:10;10.50;;;6.70;;
1178;SDS011;578;48.408;10.004;2022-10-26T04:11:38;9.47;;;7.27;;
1178;SDS011;578;48.408;10.004;2022-10-26T04:14:05;9.00;;;7.00;;
1178;SDS011;578;48.408;10.004;2022-10-26T04:16:32;12.30;;;7.27;;
1178;SDS011;578;48.408;10.004;2022-10-26T04:18:58;15.73;;;7.53;;
1178;SDS011;578;48.408;10.004;2022-10-26T04:21:25;11.43;;;7.20;;
1178;SDS011;578;48.408;10.004;2022-10-26T04:23:52;9.93;;;8.10;;
1178;SDS011;578;48.408;10.004;2022-10-26T04:26:19;11.27;;;9.83;;
1178;SDS011;578;48.408;10.004;2022-10-26T04:28:47;9.93;;;8.20;;
1178;SDS011;578;48.408;10.004;2022-10-26T04:31:14;22.73;;;10.23;;
1178;SDS011;578;48.408;10.004;2022-10-26T04:33:41;16.67;;;9.27;;
1178;SDS011;578;48.408;10.004;2022-10-26T04:36:08;11.63;;;9.80;;
1178;SDS011;578;48.408;10.004;2022-10-26T04:38:35;15.17;;;10.13;;
1178;SDS011;578;48.408;10.004;2022-10-26T04:41:02;20.17;;;10.73;;
1178;SDS011;578;48.408;10.004;2022-10-26T04:43:29;13.60;;;11.03;;
1178;SDS011;578;48.408;10.004;2022-10-26T04:45:57;17.10;;;11.17;;
1178;SDS011;578;48.408;10.004;2022-10-26T04:48:24;15.00;;;10.17;;
1178;SDS011;578;48.408;10.004;2022-10-26T04:50:51;21.57;;;11.20;;
1178;SDS011;578;48.408;10.004;2022-10-26T04:53:17;21.87;;;12.73;;
1178;SDS011;578;48.408;10.004;2022-10-26T04:55:44;17.20;;;12.93;;
1178;SDS011;578;48.408;10.004;2022-10-26T04:58:11;19.87;;;13.37;;
1178;SDS011;578;48.408;10.004;2022-10-26T05:00:38;23.33;;;13.60;;
1178;SDS011;578;48.408;10.004;2022-10-26T05:03:06;24.10;;;14.50;;
1178;SDS011;578;48.408;10.004;2022-10-26T05:05:34;20.65;;;14.80;;
1178;SDS011;578;48.408;10.004;2022-10-26T05:08:02;19.30;;;15.00;;
1178;SDS011;578;48.408;10.004;2022-10-26T05:10:29;23.17;;;13.77;;
1178;SDS011;578;48.408;10.004;2022-10-26T05:12:56;17.43;;;13.47;;
1178;SDS011;578;48.408;10.004;2022-10-26T05:15:24;19.83;;;14.80;;
1178;SDS011;578;48.408;10.004;2022-10-26T05:17:55;15.90;;;12.80;;
1178;SDS011;578;48.408;10.004;2022-10-26T05:20:24;19.60;;;12.63;;
1178;SDS011;578;48.408;10.004;2022-10-26T05:22:53;19.73;;;13.67;;
1178;SDS011;578;48.408;10.004;2022-10-26T05:25:20;23.37;;;14.70;;
1178;SDS011;578;48.408;10.004;2022-10-26T05:27:47;20.80;;;13.63;;
1178;SDS011;578;48.408;10.004;2022-10-26T05:30:14;16.87;;;12.63;;
1178;SDS011;578;48.408;10.004;2022-10-26T05:32:41;18.73;;;13.70;;
1178;SDS011;578;48.408;10.004;2022-10-26T05:35:07;16.10;;;11.70;;
1178;SDS011;578;48.408;10.004;2022-10-26T05:37:36;18.60;;;11.73;;
1178;SDS011;578;48.408;10.004;2022-10-26T05:40:03;12.13;;;10.57;;
1178;SDS011;578;48.408;10.004;2022-10-26T05:42:30;16.13;;;11.20;;
1178;SDS011;578;48.408;10.004;2022-10-26T05:44:57;17.20;;;9.40;;
1178;SDS011;578;48.408;10.004;2022-10-26T05:47:23;11.50;;;9.93;;
1178;SDS011;578;48.408;10.004;2022-10-26T05:49:50;14.30;;;10.27;;
1178;SDS011;578;48.408;10.004;2022-10-26T05:52:17;17.40;;;10.40;;
1178;SDS011;578;48.408;10.004;2022-10-26T05:54:45;18.77;;;11.50;;
1178;SDS011;578;48.408;10.004;2022-10-26T05:57:12;15.63;;;9.90;;
1178;SDS011;578;48.408;10.004;2022-10-26T05:59:39;14.80;;;10.97;;
1178;SDS011;578;48.408;10.004;2022-10-26T06:02:08;11.60;;;10.20;;
1178;SDS011;578;48.408;10.004;2022-10-26T06:04:43;12.90;;;9.57;;
1178;SDS011;578;48.408;10.004;2022-10-26T06:07:13;12.43;;;10.23;;
1178;SDS011;578;48.408;10.004;2022-10-26T06:09:41;18.53;;;10.00;;
1178;SDS011;578;48.408;10.004;2022-10-26T06:12:11;14.23;;;9.97;;
1178;SDS011;578;48.408;10.004;2022-10-26T06:14:39;14.97;;;10.70;;
1178;SDS011;578;48.408;10.004;2022-10-26T06:17:10;11.80;;;8.60;;
1178;SDS011;578;48.408;10.004;2022-10-26T06:19:51;15.13;;;10.90;;
1178;SDS011;578;48.408;10.004;2022-10-26T06:22:33;14.37;;;8.83;;
1178;SDS011;578;48.408;10.004;2022-10-26T06:25:12;13.60;;;11.33;;
1178;SDS011;578;48.408;10.004;2022-10-26T06:27:49;12.27;;;8.90;;
1178;SDS011;578;48.408;10.004;2022-10-26T06:30:21;9.80;;;8.90;;
1178;SDS011;578;48.408;10.004;2022-10-26T06:32:48;13.63;;;9.00;;
1178;SDS011;578;48.408;10.004;2022-10-26T06:35:19;15.83;;;9.80;;
1178;SDS011;578;48.408;10.004;2022-10-26T06:37:53;10.80;;;9.37;;
1178;SDS011;578;48.408;10.004;2022-10-26T06:40:21;10.07;;;8.97;;
1178;SDS011;578;48.408;10.004;2022-10-26T06:42:51;17.03;;;10.70;;
1178;SDS011;578;48.408;10.004;2022-10-26T06:45:18;12.10;;;8.97;;
1178;SDS011;578;48.408;10.004;2022-10-26T06:47:48;9.70;;;8.63;;
1178;SDS011;578;48.408;10.004;2022-10-26T06:50:24;15.33;;;10.00;;
1178;SDS011;578;48.408;10.004;2022-10-26T06:53:01;9.07;;;7.73;;
1178;SDS011;578;48.408;10.004;2022-10-26T06:55:41;9.50;;;8.50;;
1178;SDS011;578;48.408;10.004;2022-10-26T06:58:12;9.87;;;8.13;;
1178;SDS011;578;48.408;10.004;2022-10-26T07:00:41;11.13;;;8.13;;
1178;SDS011;578;48.408;10.004;2022-10-26T07:03:09;10.80;;;8.70;;
1178;SDS011;578;48.408;10.004;2022-10-26T07:05:35;9.23;;;8.20;;
1178;SDS011;578;48.408;10.004;2022-10-26T07:08:03;11.50;;;7.97;;
1178;SDS011;578;48.408;10.004;2022-10-26T07:10:30;10.43;;;8.07;;
1178;SDS011;578;48.408;10.004;2022-10-26T07:12:59;13.00;;;9.33;;
1178;SDS011;578;48.408;10.004;2022-10-26T07:15:27;12.40;;;9.37;;
1178;SDS011;578;48.408;10.004;2022-10-26T07:17:54;13.97;;;8.43;;
1178;SDS011;578;48.408;10.004;2022-10-26T07:20:21;10.37;;;7.87;;
1178;SDS011;578;48.408;10.004;2022-10-26T07:22:51;12.53;;;7.37;;
1178;SDS011;578;48.408;10.004;2022-10-26T07:25:18;13.53;;;7.30;;
1178;SDS011;578;48.408;10.004;2022-10-26T07:27:44;8.50;;;7.17;;
1178;SDS011;578;48.408;10.004;2022-10-26T07:30:12;9.37;;;6.97;;
1178;SDS011;578;48.408;10.004;2022-10-26T07:32:40;11.07;;;8.00;;
1178;SDS011;578;48.408;10.004;2022-10-26T07:35:07;11.57;;;6.80;;
1178;SDS011;578;48.408;10.004;2022-10-26T07:37:34;10.00;;;7.23;;
1178;SDS011;578;48.408;10.004;2022-10-26T07:40:01;8.20;;;6.53;;
1178;SDS011;578;48.408;10.004;2022-10-26T07:42:29;10.03;;;7.53;;
1178;SDS011;578;48.408;10.004;2022-10-26T07:44:55;15.43;;;7.20;;
1178;SDS011;578;48.408;10.004;2022-10-26T07:47:22;9.20;;;7.60;;
1178;SDS011;578;48.408;10.004;2022-10-26T07:49:50;10.17;;;8.60;;
1178;SDS011;578;48.408;10.004;2022-10-26T07:52:17;7.47;;;5.90;;
1178;SDS011;578;48.408;10.004;2022-10-26T07:54:44;9.77;;;6.43;;
1178;SDS011;578;48.408;10.004;2022-10-26T07:57:10;7.00;;;6.10;;
1178;SDS011;578;48.408;10.004;2022-10-26T07:59:37;7.03;;;5.70;;
1178;SDS011;578;48.408;10.004;2022-10-26T08:02:04;8.50;;;5.30;;
1178;SDS011;578;48.408;10.004;2022-10-26T08:04:31;8.03;;;5.40;;
1178;SDS011;578;48.408;10.004;2022-10-26T08:06:59;7.00;;;4.57;;
1178;SDS011;578;48.408;10.004;2022-10-26T08:09:25;6.40;;;4.80;;
1178;SDS011;578;48.408;10.004;2022-10-26T08:11:52;5.27;;;4.20;;
1178;SDS011;578;48.408;10.004;2022-10-26T08:14:19;5.67;;;4.83;;
1178;SDS011;578;48.408;10.004;2022-10-26T08:16:45;8.50;;;5.13;;
1178;SDS011;578;48.408;10.004;2022-10-26T08:19:16;6.20;;;4.10;;
1178;SDS011;578;48.408;10.004;2022-10-26T08:21:43;8.43;;;4.23;;
1178;SDS011;578;48.408;10.004;2022-10-26T08:24:11;5.00;;;3.83;;
1178;SDS011;578;48.408;10.004;2022-10-26T08:26:37;8.20;;;3.70;;
1178;SDS011;578;48.408;10.004;2022-10-26T08:29:04;6.43;;;3.97;;
1178;SDS011;578;48.408;10.004;2022-10-26T08:31:31;4.87;;;4.37;;
1178;SDS011;578;48.408;10.004;2022-10-26T08:33:58;7.07;;;4.07;;
1178;SDS011;578;48.408;10.004;2022-10-26T08:36:26;9.10;;;4.13;;
1178;SDS011;578;48.408;10.004;2022-10-26T08:38:53;4.50;;;3.30;;
1178;SDS011;578;48.408;10.004;2022-10-26T08:41:23;3.53;;;3.23;;
1178;SDS011;578;48.408;10.004;2022-10-26T08:43:59;9.40;;;3.50;;
1178;SDS011;578;48.408;10.004;2022-10-26T08:46:31;7.53;;;3.20;;
1178;SDS011;578;48.408;10.004;2022-10-26T08:49:02;4.17;;;3.00;;
1178;SDS011;578;48.408;10.004;2022-10-26T08:51:38;3.37;;;3.07;;
1178;SDS011;578;48.408;10.004;2022-10-26T08:54:08;8.00;;;2.80;;
1178;SDS011;578;48.408;10.004;2022-10-26T08:56:41;4.53;;;3.23;;
1178;SDS011;578;48.408;10.004;2022-10-26T08:59:11;3.90;;;3.03;;
1178;SDS011;578;48.408;10.004;2022-10-26T09:01:42;4.63;;;3.13;;
1178;SDS011;578;48.408;10.004;2022-10-26T09:04:10;4.93;;;3.50;;
1178;SDS011;578;48.408;10.004;2022-10-26T09:06:41;4.60;;;3.50;;
1178;SDS011;578;48.408;10.004;2022-10-26T09:09:19;2.90;;;2.60;;
1178;SDS011;578;48.408;10.004;2022-10-26T09:11:53;4.70;;;3.10;;
1178;SDS011;578;48.408;10.004;2022-10-26T09:14:29;4.53;;;3.60;;
1178;SDS011;578;48.408;10.004;2022-10-26T09:17:06;10.70;;;4.60;;
1178;SDS011;578;48.408;10.004;2022-10-26T09:19:50;5.70;;;3.83;;
1178;SDS011;578;48.408;10.004;2022-10-26T09:22:30;7.53;;;3.23;;
1178;SDS011;578;48.408;10.004;2022-10-26T09:25:10;7.87;;;3.80;;
1178;SDS011;578;48.408;10.004;2022-10-26T09:27:45;5.13;;;3.90;;
1178;SDS011;578;48.408;10.004;2022-10-26T09:30:14;5.23;;;3.30;;
1178;SDS011;578;48.408;10.004;2022-10-26T09:32:43;6.47;;;3.87;;
1178;SDS011;578;48.408;10.004;2022-10-26T09:35:13;3.97;;;3.57;;
1178;SDS011;578;48.408;10.004;2022-10-26T09:37:45;7.20;;;4.67;;
1178;SDS011;578;48.408;10.004;2022-10-26T09:40:17;4.30;;;3.90;;
1178;SDS011;578;48.408;10.004;2022-10-26T09:42:50;6.87;;;3.03;;
1178;SDS011;578;48.408;10.004;2022-10-26T09:45:23;4.20;;;3.63;;
1178;SDS011;578;48.408;10.004;2022-10-26T09:47:55;3.90;;;3.23;;
1178;SDS011;578;48.408;10.004;2022-10-26T09:50:26;6.57;;;3.23;;
1178;SDS011;578;48.408;10.004;2022-10-26T09:52:57;5.20;;;3.70;;
1178;SDS011;578;48.408;10.004;2022-10-26T09:55:24;4.80;;;3.73;;
1178;SDS011;578;48.408;10.004;2022-10-26T09:57:53;6.73;;;3.10;;
1178;SDS011;578;48.408;10.004;2022-10-26T10:00:24;3.93;;;3.57;;
1178;SDS011;578;48.408;10.004;2022-10-26T10:02:53;15.33;;;3.93;;
1178;SDS011;578;48.408;10.004;2022-10-26T10:05:22;7.03;;;4.00;;
1178;SDS011;578;48.408;10.004;2022-10-26T10:07:50;6.30;;;3.90;;
1178;SDS011;578;48.408;10.004;2022-10-26T10:10:18;6.13;;;3.80;;
1178;SDS011;578;48.408;10.004;2022-10-26T10:12:46;10.00;;;3.60;;
1178;SDS011;578;48.408;10.004;2022-10-26T10:15:18;7.20;;;4.23;;
1178;SDS011;578;48.408;10.004;2022-10-26T10:17:47;3.93;;;3.43;;
1178;SDS011;578;48.408;10.004;2022-10-26T10:20:17;4.00;;;3.07;;
1178;SDS011;578;48.408;10.004;2022-10-26T10:22:52;4.23;;;3.70;;
1178;SDS011;578;48.408;10.004;2022-10-26T10:25:21;5.60;;;3.60;;
1178;SDS011;578;48.408;10.004;2022-10-26T10:27:56;7.53;;;3.80;;
1178;SDS011;578;48.408;10.004;2022-10-26T10:30:26;9.90;;;4.00;;
1178;SDS011;578;48.408;10.004;2022-10-26T10:33:04;8.50;;;3.73;;
1178;SDS011;578;48.408;10.004;2022-10-26T10:35:33;4.37;;;3.83;;
1178;SDS011;578;48.408;10.004;2022-10-26T10:38:00;7.17;;;3.40;;
1178;SDS011;578;48.408;10.004;2022-10-26T10:40:28;4.43;;;3.47;;
1178;SDS011;578;48.408;10.004;2022-10-26T10:43:03;3.80;;;2.80;;
1178;SDS011;578;48.408;10.004;2022-10-26T10:45:33;6.10;;;3.40;;
1178;SDS011;578;48.408;10.004;2022-10-26T10:48:01;7.10;;;3.13;;
1178;SDS011;578;48.408;10.004;2022-10-26T10:50:30;7.17;;;3.67;;
1178;SDS011;578;48.408;10.004;2022-10-26T10:53:12;8.40;;;3.63;;
1178;SDS011;578;48.408;10.004;2022-10-26T10:55:44;6.87;;;2.77;;
1178;SDS011;578;48.408;10.004;2022-10-26T10:58:21;5.77;;;3.33;;
1178;SDS011;578;48.408;10.004;2022-10-26T11:00:54;6.87;;;3.43;;
1178;SDS011;578;48.408;10.004;2022-10-26T11:03:40;4.80;;;2.97;;
1178;SDS011;578;48.408;10.004;2022-10-26T11:06:17;10.97;;;3.73;;
1178;SDS011;578;48.408;10.004;2022-10-26T11:08:47;5.63;;;3.40;;
1178;SDS011;578;48.408;10.004;2022-10-26T11:11:20;9.67;;;3.43;;
1178;SDS011;578;48.408;10.004;2022-10-26T11:13:51;5.70;;;3.13;;
1178;SDS011;578;48.408;10.004;2022-10-26T11:16:24;6.10;;;3.70;;
1178;SDS011;578;48.408;10.004;2022-10-26T11:18:55;14.97;;;3.77;;
1178;SDS011;578;48.408;10.004;2022-10-26T11:21:28;3.70;;;3.20;;
1178;SDS011;578;48.408;10.004;2022-10-26T11:24:02;6.70;;;3.40;;
1178;SDS011;578;48.408;10.004;2022-10-26T11:26:38;4.10;;;3.37;;
1178;SDS011;578;48.408;10.004;2022-10-26T11:29:10;6.30;;;3.67;;
1178;SDS011;578;48.408;10.004;2022-10-26T11:31:49;11.80;;;3.57;;
1178;SDS011;578;48.408;10.004;2022-10-26T11:34:24;6.37;;;3.70;;
1178;SDS011;578;48.408;10.004;2022-10-26T11:36:56;6.30;;;2.97;;
1178;SDS011;578;48.408;10.004;2022-10-26T11:39:30;3.60;;;2.83;;
1178;SDS011;578;48.408;10.004;2022-10-26T11:42:05;5.60;;;2.63;;
1178;SDS011;578;48.408;10.004;2022-10-26T11:44:41;4.80;;;2.87;;
1178;SDS011;578;48.408;10.004;2022-10-26T11:47:15;4.93;;;2.87;;
1178;SDS011;578;48.408;10.004;2022-10-26T11:49:44;4.63;;;3.20;;
1178;SDS011;578;48.408;10.004;2022-10-26T11:52:17;7.33;;;3.60;;
1178;SDS011;578;48.408;10.004;2022-10-26T11:54:47;6.80;;;3.23;;
1178;SDS011;578;48.408;10.004;2022-10-26T11:57:18;6.23;;;2.80;;
1178;SDS011;578;48.408;10.004;2022-10-26T11:59:47;4.20;;;3.40;;
1178;SDS011;578;48.408;10.004;2022-10-26T12:02:18;7.90;;;3.17;;
1178;SDS011;578;48.408;10.004;2022-10-26T12:04:48;7.90;;;3.00;;
1178;SDS011;578;48.408;10.004;2022-10-26T12:07:20;5.37;;;2.50;;
1178;SDS011;578;48.408;10.004;2022-10-26T12:09:51;6.27;;;2.63;;
1178;SDS011;578;48.408;10.004;2022-10-26T12:12:22;6.63;;;2.30;;
1178;SDS011;578;48.408;10.004;2022-10-26T12:14:55;5.20;;;2.23;;
1178;SDS011;578;48.408;10.004;2022-10-26T12:17:30;5.80;;;2.80;;
1178;SDS011;578;48.408;10.004;2022-10-26T12:20:06;7.73;;;2.73;;
1178;SDS011;578;48.408;10.004;2022-10-26T12:22:49;6.53;;;2.70;;
1178;SDS011;578;48.408;10.004;2022-10-26T12:25:19;8.30;;;2.80;;
1178;SDS011;578;48.408;10.004;2022-10-26T12:27:56;2.70;;;1.93;;
1178;SDS011;578;48.408;10.004;2022-10-26T12:30:28;3.83;;;2.40;;
1178;SDS011;578;48.408;10.004;2022-10-26T12:32:57;3.43;;;2.50;;
1178;SDS011;578;48.408;10.004;2022-10-26T12:38:53;6.30;;;2.50;;
1178;SDS011;578;48.408;10.004;2022-10-26T12:41:24;3.90;;;2.37;;
1178;SDS011;578;48.408;10.004;2022-10-26T12:43:55;4.50;;;2.50;;
1178;SDS011;578;48.408;10.004;2022-10-26T12:52:43;6.70;;;2.53;;
1178;SDS011;578;48.408;10.004;2022-10-26T12:55:17;4.73;;;2.27;;
1178;SDS011;578;48.408;10.004;2022-10-26T12:57:55;3.33;;;2.13;;
1178;SDS011;578;48.408;10.004;2022-10-26T13:00:38;4.30;;;2.40;;
1178;SDS011;578;48.408;10.004;2022-10-26T13:03:13;5.63;;;2.10;;
1178;SDS011;578;48.408;10.004;2022-10-26T13:05:56;3.10;;;1.87;;
1178;SDS011;578;48.408;10.004;2022-10-26T13:08:45;4.50;;;2.93;;
1178;SDS011;578;48.408;10.004;2022-10-26T13:11:15;5.60;;;2.63;;
1178;SDS011;578;48.408;10.004;2022-10-26T13:13:44;4.27;;;1.77;;
1178;SDS011;578;48.408;10.004;2022-10-26T13:16:19;4.67;;;2.33;;
1178;SDS011;578;48.408;10.004;2022-10-26T13:18:46;3.83;;;2.20;;
1178;SDS011;578;48.408;10.004;2022-10-26T13:21:14;5.40;;;2.03;;
1178;SDS011;578;48.408;10.004;2022-10-26T13:23:44;3.67;;;2.00;;
1178;SDS011;578;48.408;10.004;2022-10-26T13:26:13;7.27;;;2.20;;
1178;SDS011;578;48.408;10.004;2022-10-26T13:28:43;4.57;;;2.03;;
1178;SDS011;578;48.408;10.004;2022-10-26T13:31:17;5.20;;;2.20;;
1178;SDS011;578;48.408;10.004;2022-10-26T13:34:02;3.93;;;2.03;;
1178;SDS011;578;48.408;10.004;2022-10-26T13:36:35;6.80;;;2.80;;
1178;SDS011;578;48.408;10.004;2022-10-26T13:39:09;5.87;;;2.53;;
1178;SDS011;578;48.408;10.004;2022-10-26T13:41:40;8.00;;;3.00;;
1178;SDS011;578;48.408;10.004;2022-10-26T13:44:11;6.97;;;2.47;;
1178;SDS011;578;48.408;10.004;2022-10-26T13:46:45;7.37;;;2.50;;
1178;SDS011;578;48.408;10.004;2022-10-26T13:49:19;5.50;;;2.50;;
1178;SDS011;578;48.408;10.004;2022-10-26T13:51:50;2.93;;;2.00;;
1178;SDS011;578;48.408;10.004;2022-10-26T13:54:24;8.70;;;2.57;;
1178;SDS011;578;48.408;10.004;2022-10-26T13:56:58;9.57;;;3.10;;
1178;SDS011;578;48.408;10.004;2022-10-26T13:59:29;5.77;;;3.33;;
1178;SDS011;578;48.408;10.004;2022-10-26T14:02:06;4.07;;;2.00;;
1178;SDS011;578;48.408;10.004;2022-10-26T14:04:39;4.37;;;2.60;;
1178;SDS011;578;48.408;10.004;2022-10-26T14:07:10;5.20;;;2.43;;
1178;SDS011;578;48.408;10.004;2022-10-26T14:09:52;2.57;;;2.30;;
1178;SDS011;578;48.408;10.004;2022-10-26T14:12:20;9.47;;;2.40;;
1178;SDS011;578;48.408;10.004;2022-10-26T14:14:47;7.40;;;2.43;;
1178;SDS011;578;48.408;10.004;2022-10-26T14:17:17;9.60;;;3.10;;
1178;SDS011;578;48.408;10.004;2022-10-26T14:19:45;4.57;;;2.60;;
1178;SDS011;578;48.408;10.004;2022-10-26T14:22:16;5.60;;;2.73;;
1178;SDS011;578;48.408;10.004;2022-10-26T14:24:49;8.07;;;3.40;;
1178;SDS011;578;48.408;10.004;2022-10-26T14:27:19;6.80;;;2.67;;
1178;SDS011;578;48.408;10.004;2022-10-26T14:29:48;5.73;;;3.07;;
1178;SDS011;578;48.408;10.004;2022-10-26T14:32:19;6.83;;;2.80;;
1178;SDS011;578;48.408;10.004;2022-10-26T14:34:47;5.50;;;3.07;;
1178;SDS011;578;48.408;10.004;2022-10-26T14:37:17;6.83;;;2.60;;
1178;SDS011;578;48.408;10.004;2022-10-26T14:39:53;5.33;;;2.40;;
1178;SDS011;578;48.408;10.004;2022-10-26T14:42:21;6.10;;;2.37;;
1178;SDS011;578;48.408;10.004;2022-10-26T14:44:52;8.30;;;3.47;;
1178;SDS011;578;48.408;10.004;2022-10-26T14:47:21;5.20;;;2.57;;
1178;SDS011;578;48.408;10.004;2022-10-26T14:49:49;3.83;;;2.23;;
1178;SDS011;578;48.408;10.004;2022-10-26T14:52:18;5.87;;;3.30;;
1178;SDS011;578;48.408;10.004;2022-10-26T14:54:56;4.43;;;2.33;;
1178;SDS011;578;48.408;10.004;2022-10-26T14:57:29;4.97;;;2.73;;
1178;SDS011;578;48.408;10.004;2022-10-26T15:00:02;5.50;;;4.90;;
1178;SDS011;578;48.408;10.004;2022-10-26T15:02:37;5.20;;;2.80;;
1178;SDS011;578;48.408;10.004;2022-10-26T15:05:15;5.67;;;2.80;;
1178;SDS011;578;48.408;10.004;2022-10-26T15:07:44;4.10;;;2.87;;
1178;SDS011;578;48.408;10.004;2022-10-26T15:13:17;4.37;;;2.93;;
1178;SDS011;578;48.408;10.004;2022-10-26T15:15:48;4.30;;;2.80;;
1178;SDS011;578;48.408;10.004;2022-10-26T15:18:17;7.50;;;2.73;;
1178;SDS011;578;48.408;10.004;2022-10-26T15:20:46;7.10;;;2.90;;
1178;SDS011;578;48.408;10.004;2022-10-26T15:23:15;4.57;;;2.43;;
1178;SDS011;578;48.408;10.004;2022-10-26T15:25:49;6.33;;;2.80;;
1178;SDS011;578;48.408;10.004;2022-10-26T15:28:20;4.63;;;2.50;;
1178;SDS011;578;48.408;10.004;2022-10-26T15:30:58;6.33;;;2.60;;
1178;SDS011;578;48.408;10.004;2022-10-26T15:33:26;3.20;;;2.23;;
1178;SDS011;578;48.408;10.004;2022-10-26T15:36:08;6.47;;;2.93;;
1178;SDS011;578;48.408;10.004;2022-10-26T15:38:40;3.70;;;2.73;;
1178;SDS011;578;48.408;10.004;2022-10-26T15:41:13;5.27;;;3.10;;
1178;SDS011;578;48.408;10.004;2022-10-26T15:43:41;5.80;;;2.87;;
1178;SDS011;578;48.408;10.004;2022-10-26T15:46:08;8.03;;;3.20;;